sensor_id;sensor_type;location;lat;lon;timestamp;P1;durP1;ratioP1;P2;durP2;ratioP2
76552;SDS011;65395;53.168;18.156;2023-02-16T00:01:48;67.20;;;22.80;;
76552;SDS011;65395;53.168;18.156;2023-02-16T00:04:23;68.70;;;23.40;;
76552;SDS011;65395;53.168;18.156;2023-02-16T00:06:51;69.00;;;22.30;;
76552;SDS011;65395;53.168;18.156;2023-02-16T00:09:20;65.30;;;21.00;;
76552;SDS011;65395;53.168;18.156;2023-02-16T00:11:48;68.10;;;21.40;;
76552;SDS011;65395;53.168;18.156;2023-02-16T00:14:27;78.50;;;23.80;;
76552;SDS011;65395;53.168;18.156;2023-02-16T00:16:55;65.50;;;21.80;;
76552;SDS011;65395;53.168;18.156;2023-02-16T00:19:37;68.50;;;22.90;;
76552;SDS011;65395;53.168;18.156;2023-02-16T00:22:05;72.00;;;23.80;;
76552;SDS011;65395;53.168;18.156;2023-02-16T00:24:33;66.60;;;23.10;;
76552;SDS011;65395;53.168;18.156;2023-02-16T00:27:00;75.40;;;23.70;;
76552;SDS011;65395;53.168;18.156;2023-02-16T00:29:28;68.70;;;23.20;;
76552;SDS011;65395;53.168;18.156;2023-02-16T00:31:57;69.30;;;22.70;;
76552;SDS011;65395;53.168;18.156;2023-02-16T00:34:29;71.20;;;23.00;;
76552;SDS011;65395;53.168;18.156;2023-02-16T00:37:04;62.80;;;22.20;;
76552;SDS011;65395;53.168;18.156;2023-02-16T00:39:34;64.20;;;21.20;;
76552;SDS011;65395;53.168;18.156;2023-02-16T00:42:03;68.90;;;22.30;;
76552;SDS011;65395;53.168;18.156;2023-02-16T00:44:39;74.70;;;23.30;;
76552;SDS011;65395;53.168;18.156;2023-02-16T00:50:17;75.30;;;23.80;;
76552;SDS011;65395;53.168;18.156;2023-02-16T00:52:54;78.60;;;24.60;;
76552;SDS011;65395;53.168;18.156;2023-02-16T00:55:24;76.20;;;24.90;;
76552;SDS011;65395;53.168;18.156;2023-02-16T00:57:55;69.50;;;21.70;;
76552;SDS011;65395;53.168;18.156;2023-02-16T01:00:29;68.40;;;22.60;;
76552;SDS011;65395;53.168;18.156;2023-02-16T01:03:01;76.50;;;26.00;;
76552;SDS011;65395;53.168;18.156;2023-02-16T01:05:31;70.60;;;24.00;;
76552;SDS011;65395;53.168;18.156;2023-02-16T01:07:59;72.30;;;23.30;;
76552;SDS011;65395;53.168;18.156;2023-02-16T01:10:37;75.80;;;24.60;;
76552;SDS011;65395;53.168;18.156;2023-02-16T01:13:15;80.30;;;24.50;;
76552;SDS011;65395;53.168;18.156;2023-02-16T01:15:43;70.10;;;22.30;;
76552;SDS011;65395;53.168;18.156;2023-02-16T01:18:12;80.00;;;25.30;;
76552;SDS011;65395;53.168;18.156;2023-02-16T01:20:42;80.50;;;25.60;;
76552;SDS011;65395;53.168;18.156;2023-02-16T01:23:09;89.30;;;27.00;;
76552;SDS011;65395;53.168;18.156;2023-02-16T01:25:35;90.70;;;26.40;;
76552;SDS011;65395;53.168;18.156;2023-02-16T01:28:08;88.00;;;27.30;;
76552;SDS011;65395;53.168;18.156;2023-02-16T01:30:44;82.60;;;25.60;;
76552;SDS011;65395;53.168;18.156;2023-02-16T01:33:11;87.30;;;26.40;;
76552;SDS011;65395;53.168;18.156;2023-02-16T01:35:37;94.80;;;27.10;;
76552;SDS011;65395;53.168;18.156;2023-02-16T01:38:04;94.80;;;28.40;;
76552;SDS011;65395;53.168;18.156;2023-02-16T01:40:39;91.60;;;27.80;;
76552;SDS011;65395;53.168;18.156;2023-02-16T01:43:16;90.20;;;26.80;;
76552;SDS011;65395;53.168;18.156;2023-02-16T01:46:01;93.10;;;26.50;;
76552;SDS011;65395;53.168;18.156;2023-02-16T01:48:33;87.60;;;27.10;;
76552;SDS011;65395;53.168;18.156;2023-02-16T01:51:05;88.00;;;25.70;;
76552;SDS011;65395;53.168;18.156;2023-02-16T01:53:45;85.00;;;26.10;;
76552;SDS011;65395;53.168;18.156;2023-02-16T01:56:21;93.00;;;26.90;;
76552;SDS011;65395;53.168;18.156;2023-02-16T01:59:00;89.30;;;28.80;;
76552;SDS011;65395;53.168;18.156;2023-02-16T02:01:37;85.80;;;25.90;;
76552;SDS011;65395;53.168;18.156;2023-02-16T02:04:10;89.90;;;28.60;;
76552;SDS011;65395;53.168;18.156;2023-02-16T02:06:50;80.40;;;26.70;;
76552;SDS011;65395;53.168;18.156;2023-02-16T02:09:19;88.80;;;28.00;;
76552;SDS011;65395;53.168;18.156;2023-02-16T02:11:56;87.30;;;27.70;;
76552;SDS011;65395;53.168;18.156;2023-02-16T02:14:30;92.80;;;29.30;;
76552;SDS011;65395;53.168;18.156;2023-02-16T02:17:06;89.80;;;28.60;;
76552;SDS011;65395;53.168;18.156;2023-02-16T02:19:39;90.60;;;28.20;;
76552;SDS011;65395;53.168;18.156;2023-02-16T02:25:29;106.40;;;30.10;;
76552;SDS011;65395;53.168;18.156;2023-02-16T02:28:25;96.90;;;29.70;;
76552;SDS011;65395;53.168;18.156;2023-02-16T02:31:06;101.60;;;31.30;;
76552;SDS011;65395;53.168;18.156;2023-02-16T02:33:54;91.80;;;30.20;;
76552;SDS011;65395;53.168;18.156;2023-02-16T02:36:41;96.10;;;29.70;;
76552;SDS011;65395;53.168;18.156;2023-02-16T02:39:25;94.50;;;31.60;;
76552;SDS011;65395;53.168;18.156;2023-02-16T02:42:18;94.90;;;31.00;;
76552;SDS011;65395;53.168;18.156;2023-02-16T02:45:00;105.60;;;32.40;;
76552;SDS011;65395;53.168;18.156;2023-02-16T02:47:37;104.00;;;32.60;;
76552;SDS011;65395;53.168;18.156;2023-02-16T02:52:53;116.50;;;33.30;;
76552;SDS011;65395;53.168;18.156;2023-02-16T02:55:29;92.80;;;29.50;;
76552;SDS011;65395;53.168;18.156;2023-02-16T02:58:11;87.20;;;29.40;;
76552;SDS011;65395;53.168;18.156;2023-02-16T03:00:49;93.40;;;30.30;;
76552;SDS011;65395;53.168;18.156;2023-02-16T03:03:21;97.00;;;30.20;;
76552;SDS011;65395;53.168;18.156;2023-02-16T03:06:06;90.00;;;28.50;;
76552;SDS011;65395;53.168;18.156;2023-02-16T03:08:38;88.60;;;28.30;;
76552;SDS011;65395;53.168;18.156;2023-02-16T03:11:12;93.40;;;30.70;;
76552;SDS011;65395;53.168;18.156;2023-02-16T03:13:55;92.20;;;31.50;;
76552;SDS011;65395;53.168;18.156;2023-02-16T03:16:32;94.70;;;30.30;;
76552;SDS011;65395;53.168;18.156;2023-02-16T03:19:04;94.80;;;29.30;;
76552;SDS011;65395;53.168;18.156;2023-02-16T03:21:44;92.10;;;29.20;;
76552;SDS011;65395;53.168;18.156;2023-02-16T03:24:22;91.10;;;27.70;;
76552;SDS011;65395;53.168;18.156;2023-02-16T03:27:01;78.60;;;27.70;;
76552;SDS011;65395;53.168;18.156;2023-02-16T03:29:38;85.90;;;27.70;;
76552;SDS011;65395;53.168;18.156;2023-02-16T03:32:06;85.70;;;28.10;;
76552;SDS011;65395;53.168;18.156;2023-02-16T03:34:33;87.00;;;29.10;;
76552;SDS011;65395;53.168;18.156;2023-02-16T03:37:07;83.80;;;27.50;;
76552;SDS011;65395;53.168;18.156;2023-02-16T03:39:37;89.90;;;29.80;;
76552;SDS011;65395;53.168;18.156;2023-02-16T03:42:14;92.20;;;31.20;;
76552;SDS011;65395;53.168;18.156;2023-02-16T03:44:41;93.40;;;29.20;;
76552;SDS011;65395;53.168;18.156;2023-02-16T03:47:07;91.00;;;28.80;;
76552;SDS011;65395;53.168;18.156;2023-02-16T03:49:36;93.80;;;28.30;;
76552;SDS011;65395;53.168;18.156;2023-02-16T03:52:03;90.90;;;28.70;;
76552;SDS011;65395;53.168;18.156;2023-02-16T03:54:29;90.90;;;29.50;;
76552;SDS011;65395;53.168;18.156;2023-02-16T03:56:56;88.20;;;29.30;;
76552;SDS011;65395;53.168;18.156;2023-02-16T03:59:23;92.00;;;28.30;;
76552;SDS011;65395;53.168;18.156;2023-02-16T04:01:49;86.40;;;27.60;;
76552;SDS011;65395;53.168;18.156;2023-02-16T04:04:16;96.10;;;30.30;;
76552;SDS011;65395;53.168;18.156;2023-02-16T04:06:43;84.70;;;29.20;;
76552;SDS011;65395;53.168;18.156;2023-02-16T04:09:10;89.40;;;28.70;;
76552;SDS011;65395;53.168;18.156;2023-02-16T04:11:36;83.70;;;28.00;;
76552;SDS011;65395;53.168;18.156;2023-02-16T04:14:13;89.90;;;27.90;;
76552;SDS011;65395;53.168;18.156;2023-02-16T04:16:41;88.50;;;28.50;;
76552;SDS011;65395;53.168;18.156;2023-02-16T04:19:07;87.90;;;29.10;;
76552;SDS011;65395;53.168;18.156;2023-02-16T04:21:34;90.30;;;29.90;;
76552;SDS011;65395;53.168;18.156;2023-02-16T04:24:01;85.60;;;29.70;;
76552;SDS011;65395;53.168;18.156;2023-02-16T04:26:31;86.00;;;27.50;;
76552;SDS011;65395;53.168;18.156;2023-02-16T04:28:58;87.90;;;28.90;;
76552;SDS011;65395;53.168;18.156;2023-02-16T04:31:25;87.80;;;29.10;;
76552;SDS011;65395;53.168;18.156;2023-02-16T04:33:52;83.90;;;28.70;;
76552;SDS011;65395;53.168;18.156;2023-02-16T04:36:18;84.20;;;28.70;;
76552;SDS011;65395;53.168;18.156;2023-02-16T04:38:45;87.20;;;29.80;;
76552;SDS011;65395;53.168;18.156;2023-02-16T04:41:12;81.70;;;29.20;;
76552;SDS011;65395;53.168;18.156;2023-02-16T04:43:39;89.60;;;31.50;;
76552;SDS011;65395;53.168;18.156;2023-02-16T04:46:05;94.40;;;31.10;;
76552;SDS011;65395;53.168;18.156;2023-02-16T04:48:32;93.10;;;32.30;;
76552;SDS011;65395;53.168;18.156;2023-02-16T04:50:58;93.40;;;30.90;;
76552;SDS011;65395;53.168;18.156;2023-02-16T04:53:25;95.60;;;32.10;;
76552;SDS011;65395;53.168;18.156;2023-02-16T04:55:51;95.80;;;31.40;;
76552;SDS011;65395;53.168;18.156;2023-02-16T04:58:18;109.80;;;32.70;;
76552;SDS011;65395;53.168;18.156;2023-02-16T05:00:45;102.60;;;31.10;;
76552;SDS011;65395;53.168;18.156;2023-02-16T05:03:11;103.90;;;33.50;;
76552;SDS011;65395;53.168;18.156;2023-02-16T05:05:38;90.50;;;29.70;;
76552;SDS011;65395;53.168;18.156;2023-02-16T05:08:06;94.70;;;31.80;;
76552;SDS011;65395;53.168;18.156;2023-02-16T05:10:32;89.20;;;31.10;;
76552;SDS011;65395;53.168;18.156;2023-02-16T05:12:59;98.70;;;32.30;;
76552;SDS011;65395;53.168;18.156;2023-02-16T05:15:36;96.20;;;31.90;;
76552;SDS011;65395;53.168;18.156;2023-02-16T05:18:03;97.60;;;32.00;;
76552;SDS011;65395;53.168;18.156;2023-02-16T05:20:30;98.20;;;33.70;;
76552;SDS011;65395;53.168;18.156;2023-02-16T05:23:06;93.60;;;31.30;;
76552;SDS011;65395;53.168;18.156;2023-02-16T05:25:33;102.40;;;31.80;;
76552;SDS011;65395;53.168;18.156;2023-02-16T05:28:00;92.20;;;32.00;;
76552;SDS011;65395;53.168;18.156;2023-02-16T05:30:27;96.10;;;32.00;;
76552;SDS011;65395;53.168;18.156;2023-02-16T05:32:54;100.00;;;32.70;;
76552;SDS011;65395;53.168;18.156;2023-02-16T05:35:20;93.70;;;32.50;;
76552;SDS011;65395;53.168;18.156;2023-02-16T05:37:47;108.10;;;32.50;;
76552;SDS011;65395;53.168;18.156;2023-02-16T05:40:14;107.80;;;34.80;;
76552;SDS011;65395;53.168;18.156;2023-02-16T05:42:40;101.50;;;32.10;;
76552;SDS011;65395;53.168;18.156;2023-02-16T05:45:07;100.50;;;31.60;;
76552;SDS011;65395;53.168;18.156;2023-02-16T05:47:34;92.40;;;30.60;;
76552;SDS011;65395;53.168;18.156;2023-02-16T05:50:01;93.20;;;30.60;;
76552;SDS011;65395;53.168;18.156;2023-02-16T05:52:28;91.90;;;30.70;;
76552;SDS011;65395;53.168;18.156;2023-02-16T05:54:55;95.80;;;31.10;;
76552;SDS011;65395;53.168;18.156;2023-02-16T05:57:21;95.20;;;30.60;;
76552;SDS011;65395;53.168;18.156;2023-02-16T05:59:48;87.50;;;29.30;;
76552;SDS011;65395;53.168;18.156;2023-02-16T06:02:15;96.40;;;31.00;;
76552;SDS011;65395;53.168;18.156;2023-02-16T06:04:41;94.50;;;31.20;;
76552;SDS011;65395;53.168;18.156;2023-02-16T06:07:08;98.90;;;32.80;;
76552;SDS011;65395;53.168;18.156;2023-02-16T06:09:35;97.90;;;32.60;;
76552;SDS011;65395;53.168;18.156;2023-02-16T06:12:02;103.10;;;34.00;;
76552;SDS011;65395;53.168;18.156;2023-02-16T06:14:28;101.50;;;33.20;;
76552;SDS011;65395;53.168;18.156;2023-02-16T06:16:55;100.50;;;33.30;;
76552;SDS011;65395;53.168;18.156;2023-02-16T06:19:24;102.70;;;32.60;;
76552;SDS011;65395;53.168;18.156;2023-02-16T06:21:50;101.00;;;31.00;;
76552;SDS011;65395;53.168;18.156;2023-02-16T06:24:17;101.00;;;32.00;;
76552;SDS011;65395;53.168;18.156;2023-02-16T06:26:44;98.40;;;31.70;;
76552;SDS011;65395;53.168;18.156;2023-02-16T06:29:11;98.80;;;32.20;;
76552;SDS011;65395;53.168;18.156;2023-02-16T06:31:38;97.70;;;33.10;;
76552;SDS011;65395;53.168;18.156;2023-02-16T06:34:05;96.90;;;32.30;;
76552;SDS011;65395;53.168;18.156;2023-02-16T06:36:31;89.00;;;30.90;;
76552;SDS011;65395;53.168;18.156;2023-02-16T06:38:59;89.90;;;30.50;;
76552;SDS011;65395;53.168;18.156;2023-02-16T06:41:26;97.60;;;31.90;;
76552;SDS011;65395;53.168;18.156;2023-02-16T06:44:04;93.00;;;30.50;;
76552;SDS011;65395;53.168;18.156;2023-02-16T06:46:33;94.60;;;31.90;;
76552;SDS011;65395;53.168;18.156;2023-02-16T06:49:00;103.00;;;32.30;;
76552;SDS011;65395;53.168;18.156;2023-02-16T06:51:27;99.30;;;33.80;;
76552;SDS011;65395;53.168;18.156;2023-02-16T06:53:54;99.70;;;33.50;;
76552;SDS011;65395;53.168;18.156;2023-02-16T06:56:21;109.30;;;37.10;;
76552;SDS011;65395;53.168;18.156;2023-02-16T06:58:48;106.20;;;36.40;;
76552;SDS011;65395;53.168;18.156;2023-02-16T07:01:15;106.40;;;35.10;;
76552;SDS011;65395;53.168;18.156;2023-02-16T07:03:48;101.40;;;35.60;;
76552;SDS011;65395;53.168;18.156;2023-02-16T07:06:16;102.40;;;34.00;;
76552;SDS011;65395;53.168;18.156;2023-02-16T07:08:43;103.40;;;35.00;;
76552;SDS011;65395;53.168;18.156;2023-02-16T07:11:10;103.00;;;35.80;;
76552;SDS011;65395;53.168;18.156;2023-02-16T07:13:37;104.10;;;34.50;;
76552;SDS011;65395;53.168;18.156;2023-02-16T07:16:04;118.70;;;38.20;;
76552;SDS011;65395;53.168;18.156;2023-02-16T07:18:32;101.10;;;35.10;;
76552;SDS011;65395;53.168;18.156;2023-02-16T07:20:59;107.20;;;36.90;;
76552;SDS011;65395;53.168;18.156;2023-02-16T07:23:26;105.90;;;35.70;;
76552;SDS011;65395;53.168;18.156;2023-02-16T07:25:53;105.30;;;35.20;;
76552;SDS011;65395;53.168;18.156;2023-02-16T07:28:19;105.40;;;34.80;;
76552;SDS011;65395;53.168;18.156;2023-02-16T07:30:46;112.50;;;36.40;;
76552;SDS011;65395;53.168;18.156;2023-02-16T07:33:13;111.50;;;36.90;;
76552;SDS011;65395;53.168;18.156;2023-02-16T07:35:41;104.40;;;35.80;;
76552;SDS011;65395;53.168;18.156;2023-02-16T07:38:08;108.80;;;35.10;;
76552;SDS011;65395;53.168;18.156;2023-02-16T07:40:35;103.00;;;35.00;;
76552;SDS011;65395;53.168;18.156;2023-02-16T07:43:03;104.80;;;35.30;;
76552;SDS011;65395;53.168;18.156;2023-02-16T07:45:31;103.00;;;35.40;;
76552;SDS011;65395;53.168;18.156;2023-02-16T07:47:58;103.20;;;37.20;;
76552;SDS011;65395;53.168;18.156;2023-02-16T07:50:27;110.60;;;36.90;;
76552;SDS011;65395;53.168;18.156;2023-02-16T07:52:54;105.80;;;36.70;;
76552;SDS011;65395;53.168;18.156;2023-02-16T07:55:21;100.70;;;37.30;;
76552;SDS011;65395;53.168;18.156;2023-02-16T07:57:48;95.10;;;35.90;;
76552;SDS011;65395;53.168;18.156;2023-02-16T08:00:18;102.30;;;37.30;;
76552;SDS011;65395;53.168;18.156;2023-02-16T08:02:45;92.70;;;35.20;;
76552;SDS011;65395;53.168;18.156;2023-02-16T08:05:12;99.80;;;37.00;;
76552;SDS011;65395;53.168;18.156;2023-02-16T08:07:39;96.40;;;35.10;;
76552;SDS011;65395;53.168;18.156;2023-02-16T08:10:07;96.80;;;35.30;;
76552;SDS011;65395;53.168;18.156;2023-02-16T08:12:35;94.10;;;35.10;;
76552;SDS011;65395;53.168;18.156;2023-02-16T08:15:02;88.80;;;33.00;;
76552;SDS011;65395;53.168;18.156;2023-02-16T08:17:29;92.90;;;34.20;;
76552;SDS011;65395;53.168;18.156;2023-02-16T08:19:56;89.50;;;33.20;;
76552;SDS011;65395;53.168;18.156;2023-02-16T08:22:23;102.50;;;38.30;;
76552;SDS011;65395;53.168;18.156;2023-02-16T08:24:49;99.90;;;38.30;;
76552;SDS011;65395;53.168;18.156;2023-02-16T08:27:16;104.20;;;38.60;;
76552;SDS011;65395;53.168;18.156;2023-02-16T08:29:43;96.40;;;37.30;;
76552;SDS011;65395;53.168;18.156;2023-02-16T08:32:10;99.60;;;35.80;;
76552;SDS011;65395;53.168;18.156;2023-02-16T08:34:38;102.60;;;39.30;;
76552;SDS011;65395;53.168;18.156;2023-02-16T08:37:05;98.50;;;40.20;;
76552;SDS011;65395;53.168;18.156;2023-02-16T08:39:32;98.00;;;38.70;;
76552;SDS011;65395;53.168;18.156;2023-02-16T08:42:00;96.20;;;37.20;;
76552;SDS011;65395;53.168;18.156;2023-02-16T08:44:27;104.80;;;39.80;;
76552;SDS011;65395;53.168;18.156;2023-02-16T08:46:55;98.50;;;38.50;;
76552;SDS011;65395;53.168;18.156;2023-02-16T08:49:24;90.20;;;36.50;;
76552;SDS011;65395;53.168;18.156;2023-02-16T08:51:54;93.10;;;35.80;;
76552;SDS011;65395;53.168;18.156;2023-02-16T08:54:25;89.80;;;36.40;;
76552;SDS011;65395;53.168;18.156;2023-02-16T08:56:56;94.70;;;35.90;;
76552;SDS011;65395;53.168;18.156;2023-02-16T08:59:25;88.20;;;35.00;;
76552;SDS011;65395;53.168;18.156;2023-02-16T09:01:52;91.90;;;35.60;;
76552;SDS011;65395;53.168;18.156;2023-02-16T09:04:19;86.50;;;33.80;;
76552;SDS011;65395;53.168;18.156;2023-02-16T09:06:46;85.80;;;34.70;;
76552;SDS011;65395;53.168;18.156;2023-02-16T09:09:14;84.80;;;32.90;;
76552;SDS011;65395;53.168;18.156;2023-02-16T09:11:42;77.20;;;31.50;;
76552;SDS011;65395;53.168;18.156;2023-02-16T09:14:09;83.50;;;33.10;;
76552;SDS011;65395;53.168;18.156;2023-02-16T09:16:36;78.30;;;32.30;;
76552;SDS011;65395;53.168;18.156;2023-02-16T09:19:05;83.90;;;33.10;;
76552;SDS011;65395;53.168;18.156;2023-02-16T09:21:32;78.70;;;33.00;;
76552;SDS011;65395;53.168;18.156;2023-02-16T09:24:00;85.90;;;31.90;;
76552;SDS011;65395;53.168;18.156;2023-02-16T09:26:31;80.70;;;32.90;;
76552;SDS011;65395;53.168;18.156;2023-02-16T09:29:00;73.70;;;30.80;;
76552;SDS011;65395;53.168;18.156;2023-02-16T09:31:28;67.90;;;28.90;;
76552;SDS011;65395;53.168;18.156;2023-02-16T09:33:59;72.70;;;31.50;;
76552;SDS011;65395;53.168;18.156;2023-02-16T09:36:29;76.70;;;32.40;;
76552;SDS011;65395;53.168;18.156;2023-02-16T09:38:57;79.20;;;32.00;;
76552;SDS011;65395;53.168;18.156;2023-02-16T09:41:27;82.00;;;32.30;;
76552;SDS011;65395;53.168;18.156;2023-02-16T09:44:11;75.50;;;32.00;;
76552;SDS011;65395;53.168;18.156;2023-02-16T09:46:51;82.10;;;33.30;;
76552;SDS011;65395;53.168;18.156;2023-02-16T09:49:23;77.50;;;31.90;;
76552;SDS011;65395;53.168;18.156;2023-02-16T09:52:00;78.10;;;31.40;;
76552;SDS011;65395;53.168;18.156;2023-02-16T09:54:39;76.10;;;30.40;;
76552;SDS011;65395;53.168;18.156;2023-02-16T09:57:16;67.40;;;28.20;;
76552;SDS011;65395;53.168;18.156;2023-02-16T10:02:52;75.60;;;30.80;;
76552;SDS011;65395;53.168;18.156;2023-02-16T10:05:29;73.70;;;31.20;;
76552;SDS011;65395;53.168;18.156;2023-02-16T10:08:02;74.30;;;31.60;;
76552;SDS011;65395;53.168;18.156;2023-02-16T10:10:37;74.20;;;31.30;;
76552;SDS011;65395;53.168;18.156;2023-02-16T10:13:14;78.80;;;32.90;;
76552;SDS011;65395;53.168;18.156;2023-02-16T10:15:47;69.40;;;30.40;;
76552;SDS011;65395;53.168;18.156;2023-02-16T10:18:18;64.80;;;29.40;;
76552;SDS011;65395;53.168;18.156;2023-02-16T10:20:57;64.90;;;29.00;;
76552;SDS011;65395;53.168;18.156;2023-02-16T10:23:33;68.60;;;30.30;;
76552;SDS011;65395;53.168;18.156;2023-02-16T10:26:14;73.60;;;30.40;;
76552;SDS011;65395;53.168;18.156;2023-02-16T10:28:47;68.10;;;30.50;;
76552;SDS011;65395;53.168;18.156;2023-02-16T10:31:21;62.50;;;29.20;;
76552;SDS011;65395;53.168;18.156;2023-02-16T10:34:02;70.10;;;28.90;;
76552;SDS011;65395;53.168;18.156;2023-02-16T10:39:34;67.40;;;28.40;;
76552;SDS011;65395;53.168;18.156;2023-02-16T10:44:53;62.70;;;27.00;;
76552;SDS011;65395;53.168;18.156;2023-02-16T10:47:29;74.10;;;27.60;;
76552;SDS011;65395;53.168;18.156;2023-02-16T10:50:01;59.10;;;26.80;;
76552;SDS011;65395;53.168;18.156;2023-02-16T10:52:30;59.80;;;27.40;;
76552;SDS011;65395;53.168;18.156;2023-02-16T10:55:01;63.20;;;27.60;;
76552;SDS011;65395;53.168;18.156;2023-02-16T10:57:29;64.60;;;29.00;;
76552;SDS011;65395;53.168;18.156;2023-02-16T10:59:58;65.00;;;28.60;;
76552;SDS011;65395;53.168;18.156;2023-02-16T11:07:56;65.40;;;29.60;;
76552;SDS011;65395;53.168;18.156;2023-02-16T11:10:43;64.40;;;28.60;;
76552;SDS011;65395;53.168;18.156;2023-02-16T11:13:23;62.50;;;28.70;;
76552;SDS011;65395;53.168;18.156;2023-02-16T11:15:57;63.50;;;27.40;;
76552;SDS011;65395;53.168;18.156;2023-02-16T11:18:28;60.00;;;25.70;;
76552;SDS011;65395;53.168;18.156;2023-02-16T11:20:59;60.00;;;26.30;;
76552;SDS011;65395;53.168;18.156;2023-02-16T11:23:27;59.20;;;26.50;;
76552;SDS011;65395;53.168;18.156;2023-02-16T11:28:48;59.50;;;26.90;;
76552;SDS011;65395;53.168;18.156;2023-02-16T11:31:18;65.50;;;27.90;;
76552;SDS011;65395;53.168;18.156;2023-02-16T11:34:01;63.20;;;28.20;;
76552;SDS011;65395;53.168;18.156;2023-02-16T11:36:33;61.90;;;28.60;;
76552;SDS011;65395;53.168;18.156;2023-02-16T11:39:05;63.80;;;29.10;;
76552;SDS011;65395;53.168;18.156;2023-02-16T11:41:50;60.90;;;26.80;;
76552;SDS011;65395;53.168;18.156;2023-02-16T11:44:31;62.80;;;28.40;;
76552;SDS011;65395;53.168;18.156;2023-02-16T11:47:03;64.30;;;27.70;;
76552;SDS011;65395;53.168;18.156;2023-02-16T11:49:36;63.30;;;28.60;;
76552;SDS011;65395;53.168;18.156;2023-02-16T11:54:51;61.00;;;27.00;;
76552;SDS011;65395;53.168;18.156;2023-02-16T11:57:25;61.00;;;28.30;;
76552;SDS011;65395;53.168;18.156;2023-02-16T11:59:59;61.50;;;27.90;;
76552;SDS011;65395;53.168;18.156;2023-02-16T12:05:38;58.40;;;26.90;;
76552;SDS011;65395;53.168;18.156;2023-02-16T12:11:20;57.10;;;27.30;;
76552;SDS011;65395;53.168;18.156;2023-02-16T12:14:04;56.90;;;25.70;;
76552;SDS011;65395;53.168;18.156;2023-02-16T12:16:46;57.30;;;26.50;;
76552;SDS011;65395;53.168;18.156;2023-02-16T12:19:29;56.80;;;26.20;;
76552;SDS011;65395;53.168;18.156;2023-02-16T12:22:08;60.10;;;27.10;;
76552;SDS011;65395;53.168;18.156;2023-02-16T12:30:49;57.10;;;24.50;;
76552;SDS011;65395;53.168;18.156;2023-02-16T12:33:30;55.60;;;25.50;;
76552;SDS011;65395;53.168;18.156;2023-02-16T12:36:17;53.10;;;25.10;;
76552;SDS011;65395;53.168;18.156;2023-02-16T12:41:53;52.20;;;24.70;;
76552;SDS011;65395;53.168;18.156;2023-02-16T12:44:41;55.90;;;25.90;;
76552;SDS011;65395;53.168;18.156;2023-02-16T12:47:18;53.50;;;23.70;;
76552;SDS011;65395;53.168;18.156;2023-02-16T12:49:52;58.10;;;24.90;;
76552;SDS011;65395;53.168;18.156;2023-02-16T12:52:29;53.10;;;24.90;;
76552;SDS011;65395;53.168;18.156;2023-02-16T12:55:26;52.80;;;23.90;;
76552;SDS011;65395;53.168;18.156;2023-02-16T13:00:50;52.60;;;23.60;;
76552;SDS011;65395;53.168;18.156;2023-02-16T13:03:32;54.50;;;25.60;;
76552;SDS011;65395;53.168;18.156;2023-02-16T13:09:02;53.50;;;25.30;;
76552;SDS011;65395;53.168;18.156;2023-02-16T13:11:45;50.50;;;24.00;;
76552;SDS011;65395;53.168;18.156;2023-02-16T13:14:16;47.40;;;24.20;;
76552;SDS011;65395;53.168;18.156;2023-02-16T13:16:58;52.00;;;24.50;;
76552;SDS011;65395;53.168;18.156;2023-02-16T13:19:28;50.70;;;24.50;;
76552;SDS011;65395;53.168;18.156;2023-02-16T13:22:00;53.30;;;24.40;;
76552;SDS011;65395;53.168;18.156;2023-02-16T13:24:53;52.70;;;25.30;;
76552;SDS011;65395;53.168;18.156;2023-02-16T13:30:42;54.30;;;25.00;;
76552;SDS011;65395;53.168;18.156;2023-02-16T13:33:24;51.50;;;25.00;;
76552;SDS011;65395;53.168;18.156;2023-02-16T13:36:07;54.80;;;25.10;;
76552;SDS011;65395;53.168;18.156;2023-02-16T13:38:51;55.40;;;26.50;;
76552;SDS011;65395;53.168;18.156;2023-02-16T13:44:33;53.40;;;27.10;;
76552;SDS011;65395;53.168;18.156;2023-02-16T13:47:05;52.30;;;26.20;;
76552;SDS011;65395;53.168;18.156;2023-02-16T13:49:37;55.80;;;26.80;;
76552;SDS011;65395;53.168;18.156;2023-02-16T13:52:09;53.80;;;27.10;;
76552;SDS011;65395;53.168;18.156;2023-02-16T13:54:38;52.50;;;25.80;;
76552;SDS011;65395;53.168;18.156;2023-02-16T13:57:10;55.80;;;26.40;;
76552;SDS011;65395;53.168;18.156;2023-02-16T13:59:47;50.30;;;26.30;;
76552;SDS011;65395;53.168;18.156;2023-02-16T14:02:17;58.00;;;27.90;;
76552;SDS011;65395;53.168;18.156;2023-02-16T14:05:17;51.10;;;25.80;;
76552;SDS011;65395;53.168;18.156;2023-02-16T14:08:07;55.90;;;27.60;;
76552;SDS011;65395;53.168;18.156;2023-02-16T14:13:45;56.40;;;26.40;;
76552;SDS011;65395;53.168;18.156;2023-02-16T14:19:02;55.80;;;27.00;;
76552;SDS011;65395;53.168;18.156;2023-02-16T14:21:46;55.30;;;26.50;;
76552;SDS011;65395;53.168;18.156;2023-02-16T14:26:58;57.50;;;27.40;;
76552;SDS011;65395;53.168;18.156;2023-02-16T14:29:33;55.80;;;28.00;;
76552;SDS011;65395;53.168;18.156;2023-02-16T14:32:18;54.60;;;28.00;;
76552;SDS011;65395;53.168;18.156;2023-02-16T14:34:53;55.50;;;26.50;;
76552;SDS011;65395;53.168;18.156;2023-02-16T14:37:37;61.20;;;27.00;;
76552;SDS011;65395;53.168;18.156;2023-02-16T14:40:14;60.00;;;27.40;;
76552;SDS011;65395;53.168;18.156;2023-02-16T14:42:49;58.10;;;28.00;;
76552;SDS011;65395;53.168;18.156;2023-02-16T14:48:12;51.60;;;26.10;;
76552;SDS011;65395;53.168;18.156;2023-02-16T14:51:15;51.70;;;26.10;;
76552;SDS011;65395;53.168;18.156;2023-02-16T14:56:38;57.70;;;27.60;;
76552;SDS011;65395;53.168;18.156;2023-02-16T14:59:14;59.90;;;27.60;;
76552;SDS011;65395;53.168;18.156;2023-02-16T15:01:51;53.50;;;25.40;;
76552;SDS011;65395;53.168;18.156;2023-02-16T15:04:26;53.30;;;26.40;;
76552;SDS011;65395;53.168;18.156;2023-02-16T15:06:57;56.90;;;27.30;;
76552;SDS011;65395;53.168;18.156;2023-02-16T15:09:30;56.60;;;27.00;;
76552;SDS011;65395;53.168;18.156;2023-02-16T15:12:00;62.10;;;26.60;;
76552;SDS011;65395;53.168;18.156;2023-02-16T15:14:45;57.50;;;26.00;;
76552;SDS011;65395;53.168;18.156;2023-02-16T15:17:25;54.30;;;24.90;;
76552;SDS011;65395;53.168;18.156;2023-02-16T15:19:57;54.60;;;24.40;;
76552;SDS011;65395;53.168;18.156;2023-02-16T15:22:32;49.50;;;23.20;;
76552;SDS011;65395;53.168;18.156;2023-02-16T15:25:01;42.40;;;21.70;;
76552;SDS011;65395;53.168;18.156;2023-02-16T15:27:30;47.90;;;22.30;;
76552;SDS011;65395;53.168;18.156;2023-02-16T15:30:07;47.30;;;23.10;;
76552;SDS011;65395;53.168;18.156;2023-02-16T15:32:54;49.10;;;23.50;;
76552;SDS011;65395;53.168;18.156;2023-02-16T15:35:34;49.10;;;23.20;;
76552;SDS011;65395;53.168;18.156;2023-02-16T15:38:08;56.90;;;25.60;;
76552;SDS011;65395;53.168;18.156;2023-02-16T15:40:59;56.10;;;25.30;;
76552;SDS011;65395;53.168;18.156;2023-02-16T15:43:31;53.50;;;25.60;;
76552;SDS011;65395;53.168;18.156;2023-02-16T15:46:02;56.40;;;26.10;;